createdAt,value
2019-05-09T00:02:04.068Z,1.33
2019-05-09T00:04:30.473Z,1.80
2019-05-09T00:06:56.670Z,1.47
2019-05-09T00:09:23.237Z,1.30
2019-05-09T00:11:49.443Z,1.30
2019-05-09T00:14:15.722Z,1.27
2019-05-09T00:16:43.877Z,1.30
2019-05-09T00:19:09.898Z,1.13
2019-05-09T00:21:37.980Z,0.80
2019-05-09T00:24:04.455Z,1.10
2019-05-09T00:26:30.642Z,1.57
2019-05-09T00:28:58.723Z,1.10
2019-05-09T00:31:27.130Z,1.60
2019-05-09T00:33:55.198Z,1.20
2019-05-09T00:36:23.170Z,1.50
2019-05-09T00:38:49.511Z,1.27
2019-05-09T00:41:15.690Z,1.27
2019-05-09T00:43:43.810Z,1.23
2019-05-09T00:46:13.766Z,1.20
2019-05-09T00:48:43.899Z,2.07
2019-05-09T00:51:09.778Z,1.50
2019-05-09T00:53:36.075Z,1.30
2019-05-09T00:56:04.193Z,1.20
2019-05-09T00:58:30.333Z,1.10
2019-05-09T01:00:56.528Z,1.30
2019-05-09T01:03:23.504Z,1.17
2019-05-09T01:05:50.683Z,1.20
2019-05-09T01:08:17.143Z,1.30
2019-05-09T01:10:43.736Z,0.97
2019-05-09T01:13:10.090Z,1.40
2019-05-09T01:15:36.278Z,1.10
2019-05-09T01:18:04.431Z,1.40
2019-05-09T01:20:30.545Z,1.47
2019-05-09T01:22:56.742Z,1.13
2019-05-09T01:25:24.068Z,1.00
2019-05-09T01:27:50.794Z,0.90
2019-05-09T01:30:17.397Z,1.37
2019-05-09T01:32:45.469Z,1.00
2019-05-09T01:35:13.191Z,1.10
2019-05-09T01:37:39.766Z,0.90
2019-05-09T01:40:06.081Z,1.77
2019-05-09T01:42:33.772Z,1.10
2019-05-09T01:45:00.014Z,1.00
2019-05-09T01:47:26.186Z,0.83
2019-05-09T01:49:53.859Z,0.90
2019-05-09T01:52:20.162Z,1.27
2019-05-09T01:54:48.031Z,1.07
2019-05-09T01:57:14.298Z,1.17
2019-05-09T01:59:40.591Z,1.20
2019-05-09T02:02:08.791Z,1.27
2019-05-09T02:04:35.363Z,1.37
2019-05-09T02:07:04.191Z,1.00
2019-05-09T02:09:30.698Z,1.40
2019-05-09T02:11:56.878Z,1.40
2019-05-09T02:14:24.970Z,0.90
2019-05-09T02:16:53.772Z,1.10
2019-05-09T02:19:24.007Z,1.20
2019-05-09T02:21:50.510Z,1.17
2019-05-09T02:24:16.683Z,1.40
2019-05-09T02:26:43.865Z,1.47
2019-05-09T02:29:10.413Z,0.90
2019-05-09T02:31:36.692Z,1.20
2019-05-09T02:34:04.916Z,1.50
2019-05-09T02:36:30.891Z,1.40
2019-05-09T02:38:59.062Z,1.27
2019-05-09T02:41:28.494Z,1.50
2019-05-09T02:43:53.409Z,1.23
2019-05-09T02:46:19.596Z,1.60
2019-05-09T02:48:49.236Z,1.83
2019-05-09T02:51:13.972Z,1.50
2019-05-09T02:53:40.142Z,1.83
2019-05-09T02:56:08.930Z,1.53
2019-05-09T02:58:38.767Z,1.67
2019-05-09T03:01:08.319Z,1.40
2019-05-09T03:03:39.040Z,1.57
2019-05-09T03:06:04.426Z,1.43
2019-05-09T03:08:30.963Z,1.60
2019-05-09T03:10:59.065Z,1.60
2019-05-09T03:13:25.227Z,1.33
2019-05-09T03:15:53.511Z,1.50
2019-05-09T03:18:19.688Z,1.77
2019-05-09T03:20:49.266Z,1.67
2019-05-09T03:23:18.871Z,1.07
2019-05-09T03:25:43.675Z,1.67
2019-05-09T03:28:11.884Z,1.73
2019-05-09T03:30:40.031Z,1.87
2019-05-09T03:33:09.961Z,1.90
2019-05-09T03:35:34.445Z,1.70
2019-05-09T03:38:02.520Z,1.60
2019-05-09T03:40:28.797Z,1.77
2019-05-09T03:42:57.375Z,1.80
2019-05-09T03:45:23.524Z,1.43
2019-05-09T03:47:51.702Z,2.20
2019-05-09T03:50:18.046Z,1.50
2019-05-09T03:52:44.182Z,1.70
2019-05-09T03:55:13.167Z,1.80
2019-05-09T03:57:41.273Z,1.93
2019-05-09T04:00:07.791Z,2.13
2019-05-09T04:02:34.020Z,2.17
2019-05-09T04:05:00.214Z,2.23
2019-05-09T04:07:27.749Z,2.20
2019-05-09T04:09:54.537Z,1.90
2019-05-09T04:12:20.743Z,1.70
2019-05-09T04:14:48.061Z,2.40
2019-05-09T04:17:14.386Z,2.00
2019-05-09T04:19:40.935Z,1.60
2019-05-09T04:22:08.031Z,1.97
2019-05-09T04:24:35.202Z,1.67
2019-05-09T04:27:03.310Z,1.93
2019-05-09T04:29:29.481Z,1.17
2019-05-09T04:31:57.493Z,1.90
2019-05-09T04:34:23.683Z,1.53
2019-05-09T04:36:49.858Z,1.43
2019-05-09T04:39:23.682Z,1.57
2019-05-09T04:41:44.130Z,1.00
2019-05-09T04:44:17.172Z,1.03
2019-05-09T04:46:40.282Z,1.63
2019-05-09T04:49:08.240Z,2.70
2019-05-09T04:51:34.450Z,1.00
2019-05-09T04:54:00.833Z,1.07
2019-05-09T04:56:28.935Z,1.07
2019-05-09T04:58:55.114Z,1.30
2019-05-09T05:01:21.394Z,0.90
2019-05-09T05:03:49.592Z,0.93
2019-05-09T05:06:18.766Z,1.17
2019-05-09T05:08:43.746Z,0.70
2019-05-09T05:11:11.564Z,1.27
2019-05-09T05:13:38.368Z,1.40
2019-05-09T05:16:04.715Z,1.17
2019-05-09T05:18:31.127Z,1.50
2019-05-09T05:20:57.727Z,1.37
2019-05-09T05:23:27.595Z,1.63
2019-05-09T05:25:53.982Z,1.10
2019-05-09T05:28:20.200Z,1.40
2019-05-09T05:30:47.733Z,1.30
2019-05-09T05:33:18.373Z,1.27
2019-05-09T05:35:47.962Z,1.43
2019-05-09T05:38:14.010Z,1.50
2019-05-09T05:40:45.414Z,1.40
2019-05-09T05:43:08.899Z,1.77
2019-05-09T05:45:37.576Z,1.20
2019-05-09T05:48:07.816Z,1.00
2019-05-09T05:50:33.745Z,1.30
2019-05-09T05:53:00.010Z,1.10
2019-05-09T05:55:27.425Z,1.00
2019-05-09T05:57:53.823Z,2.77
2019-05-09T06:00:21.894Z,1.20
2019-05-09T06:02:48.113Z,1.17
2019-05-09T06:05:14.466Z,1.30
2019-05-09T06:07:40.664Z,1.20
2019-05-09T06:10:08.246Z,1.30
2019-05-09T06:12:37.888Z,1.43
2019-05-09T06:15:04.398Z,1.60
2019-05-09T06:17:30.675Z,1.40
2019-05-09T06:19:58.937Z,1.53
2019-05-09T06:22:24.842Z,1.87
2019-05-09T06:24:52.950Z,1.67
2019-05-09T06:27:19.122Z,1.40
2019-05-09T06:29:47.644Z,1.50
2019-05-09T06:32:13.506Z,1.00
2019-05-09T06:34:42.162Z,1.20
2019-05-09T06:37:09.052Z,1.73
2019-05-09T06:39:37.816Z,1.53
2019-05-09T06:42:04.155Z,1.40
2019-05-09T06:44:32.394Z,1.10
2019-05-09T06:47:00.582Z,1.43
2019-05-09T06:49:31.802Z,1.30
2019-05-09T06:51:58.084Z,1.10
2019-05-09T06:54:24.578Z,1.50
2019-05-09T06:56:50.760Z,1.33
2019-05-09T06:59:18.973Z,1.27
2019-05-09T07:01:48.158Z,1.70
2019-05-09T07:04:18.293Z,1.10
2019-05-09T07:06:48.298Z,1.30
2019-05-09T07:09:17.512Z,1.70
2019-05-09T07:11:43.966Z,0.90
2019-05-09T07:14:25.848Z,1.10
2019-05-09T07:16:41.357Z,1.30
2019-05-09T07:19:08.104Z,1.73
2019-05-09T07:21:37.587Z,1.20
2019-05-09T07:24:03.926Z,1.53
2019-05-09T07:26:32.075Z,1.60
2019-05-09T07:28:59.551Z,1.37
2019-05-09T07:31:28.545Z,1.00
2019-05-09T07:33:58.756Z,2.20
2019-05-09T07:36:24.847Z,1.70
2019-05-09T07:38:51.149Z,1.20
2019-05-09T07:41:17.895Z,1.67
2019-05-09T07:43:44.294Z,1.40
2019-05-09T07:46:12.409Z,1.37
2019-05-09T07:48:40.507Z,1.00
2019-05-09T07:51:07.892Z,1.00
2019-05-09T07:53:34.399Z,1.30
2019-05-09T07:56:01.348Z,1.80
2019-05-09T07:58:28.330Z,1.27
2019-05-09T08:00:58.235Z,1.37
2019-05-09T08:03:22.765Z,1.20
2019-05-09T08:05:48.930Z,1.23
2019-05-09T08:08:15.522Z,1.87
2019-05-09T08:10:43.732Z,1.43
2019-05-09T08:13:12.091Z,1.17
2019-05-09T08:15:38.674Z,1.40
2019-05-09T08:18:05.051Z,1.60
2019-05-09T08:20:31.318Z,1.20
2019-05-09T08:23:01.380Z,1.33
2019-05-09T08:25:27.744Z,2.00
2019-05-09T08:27:53.610Z,2.70
2019-05-09T08:30:19.828Z,1.67
2019-05-09T08:32:48.195Z,1.50
2019-05-09T08:35:13.982Z,0.93
2019-05-09T08:37:40.182Z,1.40
2019-05-09T08:40:07.969Z,1.63
2019-05-09T08:42:34.444Z,3.33
2019-05-09T08:45:00.640Z,1.60
2019-05-09T08:47:27.772Z,2.07
2019-05-09T08:49:58.403Z,1.67
2019-05-09T08:52:24.198Z,2.03
2019-05-09T08:54:52.278Z,1.40
2019-05-09T08:57:18.571Z,1.83
2019-05-09T08:59:47.316Z,2.60
2019-05-09T09:02:16.582Z,2.10
2019-05-09T09:04:40.714Z,2.17
2019-05-09T09:07:08.395Z,1.93
2019-05-09T09:09:34.829Z,2.00
2019-05-09T09:12:01.003Z,1.10
2019-05-09T09:14:27.923Z,1.83
2019-05-09T09:16:54.830Z,2.33
2019-05-09T09:19:21.855Z,1.93
2019-05-09T09:21:49.708Z,1.67
2019-05-09T09:24:17.695Z,1.60
2019-05-09T09:26:44.087Z,1.50
2019-05-09T09:29:10.659Z,1.40
2019-05-09T09:31:37.812Z,1.47
2019-05-09T09:34:04.209Z,1.63
2019-05-09T09:36:30.419Z,1.17
2019-05-09T09:38:58.627Z,0.90
2019-05-09T09:41:24.778Z,1.70
2019-05-09T09:43:50.978Z,1.90
2019-05-09T09:46:18.230Z,2.63
2019-05-09T09:48:44.690Z,1.70
2019-05-09T09:51:11.117Z,1.87
2019-05-09T09:53:38.450Z,2.03
2019-05-09T09:56:04.970Z,1.60
2019-05-09T09:58:31.474Z,1.60
2019-05-09T10:01:03.166Z,2.87
2019-05-09T10:03:27.929Z,2.40
2019-05-09T10:05:57.559Z,1.83
2019-05-09T10:08:23.179Z,2.27
2019-05-09T10:10:49.450Z,2.93
2019-05-09T10:13:15.637Z,2.93
2019-05-09T10:15:43.718Z,2.63
2019-05-09T10:18:12.190Z,2.90
2019-05-09T10:20:40.510Z,2.70
2019-05-09T10:23:15.068Z,2.90
2019-05-09T10:25:34.705Z,2.70
2019-05-09T10:28:01.128Z,3.37
2019-05-09T10:30:28.909Z,2.67
2019-05-09T10:32:55.094Z,3.53
2019-05-09T10:35:21.595Z,3.30
2019-05-09T10:37:48.564Z,3.97
2019-05-09T10:40:18.810Z,5.33
2019-05-09T10:42:48.376Z,4.97
2019-05-09T10:45:18.040Z,3.93
2019-05-09T10:47:44.414Z,2.87
2019-05-09T10:50:10.728Z,5.17
2019-05-09T10:52:37.127Z,5.93
2019-05-09T10:55:04.083Z,4.00
2019-05-09T10:57:32.299Z,3.53
2019-05-09T10:59:58.463Z,3.23
2019-05-09T11:02:24.750Z,3.70
2019-05-09T11:04:51.127Z,2.90
2019-05-09T11:07:18.236Z,2.70
2019-05-09T11:09:50.302Z,2.30
2019-05-09T11:12:18.818Z,4.07
2019-05-09T11:14:44.992Z,2.50
2019-05-09T11:17:18.172Z,1.83
2019-05-09T11:19:39.796Z,2.43
2019-05-09T11:22:07.991Z,2.03
2019-05-09T11:24:43.002Z,1.77
2019-05-09T11:27:01.988Z,2.03
2019-05-09T11:29:28.246Z,1.37
2019-05-09T11:31:54.407Z,1.77
2019-05-09T11:34:20.607Z,2.20
2019-05-09T11:36:47.547Z,2.03
2019-05-09T11:39:14.850Z,1.77
2019-05-09T11:41:41.394Z,2.47
2019-05-09T11:44:08.609Z,2.07
2019-05-09T11:46:34.981Z,1.90
2019-05-09T11:49:01.663Z,1.80
2019-05-09T11:51:29.100Z,2.37
2019-05-09T11:53:57.953Z,1.63
2019-05-09T11:56:23.752Z,2.03
2019-05-09T11:58:50.021Z,1.93
2019-05-09T12:01:18.572Z,2.50
2019-05-09T12:03:44.303Z,2.57
2019-05-09T12:06:10.490Z,1.90
2019-05-09T12:08:38.735Z,2.37
2019-05-09T12:11:05.171Z,1.97
2019-05-09T12:13:31.377Z,1.93
2019-05-09T12:15:58.423Z,2.83
2019-05-09T12:18:24.770Z,2.00
2019-05-09T12:20:51.918Z,1.63
2019-05-09T12:23:19.895Z,2.50
2019-05-09T12:25:46.447Z,1.50
2019-05-09T12:28:12.618Z,1.20
2019-05-09T12:30:38.798Z,1.30
2019-05-09T12:33:05.004Z,1.00
2019-05-09T12:35:31.175Z,1.60
2019-05-09T12:37:57.347Z,2.47
2019-05-09T12:40:23.606Z,1.57
2019-05-09T12:42:50.431Z,1.37
2019-05-09T12:45:18.051Z,1.77
2019-05-09T12:47:44.757Z,2.10
2019-05-09T12:50:10.931Z,1.70
2019-05-09T12:52:39.261Z,2.17
2019-05-09T12:55:07.992Z,2.37
2019-05-09T12:57:33.406Z,1.30
2019-05-09T12:59:59.983Z,1.80
2019-05-09T13:02:27.870Z,1.43
2019-05-09T13:04:54.610Z,1.37
2019-05-09T13:07:20.806Z,1.60
2019-05-09T13:09:52.601Z,0.97
2019-05-09T13:12:17.855Z,1.33
2019-05-09T13:14:43.418Z,1.33
2019-05-09T13:17:11.530Z,1.50
2019-05-09T13:19:39.615Z,1.63
2019-05-09T13:22:08.108Z,1.93
2019-05-09T13:24:34.614Z,1.60
2019-05-09T13:27:00.795Z,1.40
2019-05-09T13:29:29.489Z,1.53
2019-05-09T13:31:54.974Z,1.93
2019-05-09T13:34:21.313Z,1.30
2019-05-09T13:36:48.880Z,2.07
2019-05-09T13:39:17.732Z,1.27
2019-05-09T13:41:43.440Z,1.57
2019-05-09T13:44:13.481Z,1.60
2019-05-09T13:46:38.757Z,2.40
2019-05-09T13:49:11.310Z,3.07
2019-05-09T13:51:33.284Z,1.67
2019-05-09T13:53:59.650Z,2.03
2019-05-09T13:56:27.995Z,2.27
2019-05-09T13:58:54.108Z,1.53
2019-05-09T14:01:20.417Z,1.63
2019-05-09T14:03:48.858Z,2.07
2019-05-09T14:06:14.566Z,1.50
2019-05-09T14:08:40.987Z,1.60
2019-05-09T14:11:08.292Z,1.83
2019-05-09T14:13:34.717Z,1.83
2019-05-09T14:16:15.803Z,1.50
2019-05-09T14:18:29.604Z,1.37
2019-05-09T14:20:57.449Z,1.50
2019-05-09T14:23:34.820Z,1.60
2019-05-09T14:25:53.656Z,1.47
2019-05-09T14:28:20.134Z,1.57
2019-05-09T14:30:47.760Z,2.07
2019-05-09T14:33:14.533Z,2.03
2019-05-09T14:35:41.087Z,2.20
2019-05-09T14:38:08.731Z,3.40
2019-05-09T14:40:37.225Z,3.53
2019-05-09T14:43:04.683Z,3.33
2019-05-09T14:45:31.515Z,3.43
2019-05-09T14:47:58.719Z,3.57
2019-05-09T14:50:25.661Z,4.07
2019-05-09T14:52:52.658Z,5.13
2019-05-09T14:55:19.246Z,4.17
2019-05-09T14:57:47.964Z,2.60
2019-05-09T15:00:14.304Z,4.87
2019-05-09T15:02:40.722Z,5.47
2019-05-09T15:05:09.444Z,6.90
2019-05-09T15:07:35.626Z,6.07
2019-05-09T15:10:04.414Z,6.37
2019-05-09T15:12:30.891Z,7.67
2019-05-09T15:14:57.767Z,5.60
2019-05-09T15:17:24.308Z,8.60
2019-05-09T15:19:59.677Z,7.17
2019-05-09T15:22:19.202Z,5.30
2019-05-09T15:24:47.760Z,5.57
2019-05-09T15:27:14.662Z,6.17
2019-05-09T15:29:41.143Z,5.70
2019-05-09T15:32:12.008Z,7.23
2019-05-09T15:34:38.163Z,7.60
2019-05-09T15:37:04.212Z,7.10
2019-05-09T15:39:30.679Z,5.93
2019-05-09T15:41:57.954Z,4.93
2019-05-09T15:44:24.602Z,5.20
2019-05-09T15:46:52.678Z,5.43
2019-05-09T15:49:19.054Z,5.37
2019-05-09T15:51:47.645Z,4.83
2019-05-09T15:54:13.440Z,4.27
2019-05-09T15:56:39.617Z,2.60
2019-05-09T15:59:05.818Z,3.10
2019-05-09T16:01:32.199Z,2.77
2019-05-09T16:03:58.482Z,3.23
2019-05-09T16:06:24.706Z,3.00
2019-05-09T16:08:50.863Z,3.40
2019-05-09T16:11:18.073Z,3.60
2019-05-09T16:13:44.534Z,3.33
2019-05-09T16:16:10.702Z,2.93
2019-05-09T16:18:36.879Z,3.37
2019-05-09T16:21:03.211Z,2.47
2019-05-09T16:23:29.369Z,2.80
2019-05-09T16:25:58.389Z,2.77
2019-05-09T16:28:24.214Z,2.70
2019-05-09T16:30:50.345Z,4.23
2019-05-09T16:33:18.385Z,3.93
2019-05-09T16:35:44.526Z,3.43
2019-05-09T16:38:11.076Z,3.83
2019-05-09T16:40:38.581Z,3.90
2019-05-09T16:43:05.087Z,4.07
2019-05-09T16:45:31.262Z,3.37
2019-05-09T16:47:57.738Z,3.60
2019-05-09T16:50:23.942Z,4.73
2019-05-09T16:52:50.114Z,4.00
2019-05-09T16:55:18.199Z,4.70
2019-05-09T16:57:44.498Z,5.20
2019-05-09T17:00:12.693Z,4.97
2019-05-09T17:02:38.874Z,5.40
2019-05-09T17:05:05.170Z,5.43
2019-05-09T17:07:31.348Z,4.87
2019-05-09T17:09:57.850Z,4.57
2019-05-09T17:12:24.138Z,3.80
2019-05-09T17:14:50.307Z,4.00
2019-05-09T17:17:17.849Z,4.80
2019-05-09T17:19:44.182Z,4.33
2019-05-09T17:22:12.259Z,4.93
2019-05-09T17:24:39.536Z,4.77
2019-05-09T17:27:08.691Z,4.97
2019-05-09T17:29:34.626Z,4.87
2019-05-09T17:32:00.819Z,5.70
2019-05-09T17:34:28.670Z,5.13
2019-05-09T17:36:55.085Z,5.40
2019-05-09T17:39:21.263Z,6.00
2019-05-09T17:41:47.455Z,6.70
2019-05-09T17:44:13.732Z,6.10
2019-05-09T17:46:39.910Z,5.77
2019-05-09T17:49:08.306Z,6.63
2019-05-09T17:51:36.463Z,6.40
2019-05-09T17:54:02.589Z,7.37
2019-05-09T17:56:28.889Z,6.60
2019-05-09T17:58:55.058Z,5.43
2019-05-09T18:01:21.438Z,4.87
2019-05-09T18:03:48.200Z,3.40
2019-05-09T18:06:14.627Z,4.53
2019-05-09T18:08:40.792Z,4.27
2019-05-09T18:11:09.197Z,3.87
2019-05-09T18:13:34.974Z,4.67
2019-05-09T18:16:01.153Z,4.17
2019-05-09T18:18:28.376Z,5.37
2019-05-09T18:20:54.810Z,3.63
2019-05-09T18:23:20.986Z,4.23
2019-05-09T18:25:49.378Z,4.60
2019-05-09T18:28:17.418Z,3.80
2019-05-09T18:30:43.807Z,3.40
2019-05-09T18:33:12.114Z,3.93
2019-05-09T18:35:38.392Z,3.63
2019-05-09T18:38:04.966Z,3.40
2019-05-09T18:40:31.265Z,4.40
2019-05-09T18:42:58.355Z,4.73
2019-05-09T18:45:24.921Z,4.30
2019-05-09T18:47:51.126Z,3.77
2019-05-09T18:50:17.402Z,4.10
2019-05-09T18:52:43.767Z,4.23
2019-05-09T18:55:10.271Z,4.40
2019-05-09T18:57:36.442Z,4.33
2019-05-09T19:00:05.365Z,4.63
2019-05-09T19:02:31.539Z,4.33
2019-05-09T19:04:57.718Z,4.17
2019-05-09T19:07:23.888Z,4.87
2019-05-09T19:09:50.090Z,5.47
2019-05-09T19:12:16.360Z,5.07
2019-05-09T19:14:44.035Z,5.77
2019-05-09T19:17:12.558Z,5.20
2019-05-09T19:19:40.733Z,5.50
2019-05-09T19:22:21.551Z,5.00
2019-05-09T19:24:35.402Z,5.87
2019-05-09T19:27:01.575Z,5.80
2019-05-09T19:29:28.225Z,5.03
2019-05-09T19:31:54.522Z,5.27
2019-05-09T19:34:20.702Z,5.27
2019-05-09T19:36:46.870Z,5.57
2019-05-09T19:39:13.311Z,6.03
2019-05-09T19:41:39.490Z,4.57
2019-05-09T19:44:05.867Z,4.80
2019-05-09T19:46:32.088Z,4.50
2019-05-09T19:48:58.244Z,4.63
2019-05-09T19:51:24.403Z,5.40
2019-05-09T19:53:50.882Z,5.27
2019-05-09T19:56:17.104Z,5.43
2019-05-09T19:58:43.218Z,5.80
2019-05-09T20:01:09.570Z,5.43
2019-05-09T20:03:36.238Z,6.30
2019-05-09T20:06:02.508Z,7.00
2019-05-09T20:08:29.016Z,5.97
2019-05-09T20:10:57.158Z,5.93
2019-05-09T20:13:25.223Z,7.73
2019-05-09T20:15:51.428Z,5.90
2019-05-09T20:18:17.682Z,8.17
2019-05-09T20:20:43.856Z,7.03
2019-05-09T20:23:10.096Z,8.23
2019-05-09T20:25:36.244Z,8.57
2019-05-09T20:28:02.412Z,8.07
2019-05-09T20:30:31.028Z,9.37
2019-05-09T20:32:57.186Z,9.77
2019-05-09T20:35:23.366Z,10.00
2019-05-09T20:37:49.591Z,9.60
2019-05-09T20:40:15.822Z,9.27
2019-05-09T20:42:41.998Z,11.47
2019-05-09T20:45:08.190Z,11.23
2019-05-09T20:47:34.548Z,11.30
2019-05-09T20:50:00.990Z,9.30
2019-05-09T20:52:27.239Z,8.50
2019-05-09T20:54:53.639Z,8.57
2019-05-09T20:57:19.905Z,9.10
2019-05-09T20:59:46.106Z,6.37
2019-05-09T21:02:12.291Z,4.70
2019-05-09T21:04:38.466Z,4.87
2019-05-09T21:07:04.663Z,5.63
2019-05-09T21:09:30.838Z,6.30
2019-05-09T21:11:57.007Z,8.10
2019-05-09T21:14:23.365Z,7.57
2019-05-09T21:16:49.555Z,8.27
2019-05-09T21:19:16.418Z,12.03
2019-05-09T21:21:42.620Z,10.50
2019-05-09T21:24:08.887Z,9.40
2019-05-09T21:26:35.078Z,7.67
2019-05-09T21:29:01.657Z,4.97
2019-05-09T21:31:28.315Z,4.77
2019-05-09T21:33:54.490Z,3.70
2019-05-09T21:36:20.803Z,5.13
2019-05-09T21:38:46.974Z,3.90
2019-05-09T21:41:13.180Z,4.30
2019-05-09T21:43:39.452Z,4.93
2019-05-09T21:46:05.623Z,5.77
2019-05-09T21:48:31.798Z,5.47
2019-05-09T21:50:57.995Z,6.00
2019-05-09T21:53:39.574Z,6.97
2019-05-09T21:55:52.242Z,7.77
2019-05-09T21:58:18.755Z,6.87
2019-05-09T22:00:48.641Z,9.13
2019-05-09T22:03:15.146Z,5.97
2019-05-09T22:05:41.558Z,8.37
2019-05-09T22:08:07.735Z,6.10
2019-05-09T22:10:33.978Z,8.10
2019-05-09T22:13:00.314Z,8.73
2019-05-09T22:15:26.906Z,9.10
2019-05-09T22:17:53.075Z,8.30
2019-05-09T22:20:19.376Z,10.73
2019-05-09T22:22:45.546Z,11.13
2019-05-09T22:25:11.922Z,10.80
2019-05-09T22:27:38.234Z,14.67
2019-05-09T22:30:06.109Z,12.33
2019-05-09T22:32:32.839Z,10.77
2019-05-09T22:34:59.040Z,9.97
2019-05-09T22:37:25.210Z,12.47
2019-05-09T22:39:51.595Z,11.83
2019-05-09T22:42:17.922Z,6.53
2019-05-09T22:44:44.090Z,8.20
2019-05-09T22:47:10.372Z,5.67
2019-05-09T22:49:36.597Z,6.17
2019-05-09T22:52:02.742Z,6.73
2019-05-09T22:54:28.914Z,7.27
2019-05-09T22:56:55.114Z,5.77
2019-05-09T22:59:21.318Z,6.80
2019-05-09T23:01:47.598Z,6.37
2019-05-09T23:04:13.813Z,8.53
2019-05-09T23:06:39.983Z,4.50
2019-05-09T23:09:06.436Z,4.60
2019-05-09T23:11:32.640Z,5.17
2019-05-09T23:13:58.822Z,4.97
2019-05-09T23:16:26.899Z,5.60
2019-05-09T23:18:53.538Z,5.87
2019-05-09T23:21:20.446Z,5.43
2019-05-09T23:23:48.517Z,5.47
2019-05-09T23:26:16.622Z,5.37
2019-05-09T23:28:42.894Z,5.23
2019-05-09T23:31:11.000Z,4.60
2019-05-09T23:33:39.559Z,5.13
2019-05-09T23:36:05.733Z,4.30
2019-05-09T23:38:31.907Z,6.70
2019-05-09T23:40:58.114Z,7.60
2019-05-09T23:43:24.295Z,6.27
2019-05-09T23:45:50.563Z,7.20
2019-05-09T23:48:16.757Z,6.80
2019-05-09T23:50:43.075Z,5.93
2019-05-09T23:53:09.211Z,6.60
2019-05-09T23:55:37.325Z,8.70
2019-05-09T23:58:05.403Z,6.57
